Flight Track Log - Related Links

Times and Time Zones

All times are in EDT time to prevent confusion due to time zone crossing. See the N4455S flight status page for this flight to view local times or setup timezone preferences in your user account.

Time Position Orientation Groundspeed Altitude Reporting Facility
EDT Latitude Longitude Course Direction KTS MPH feet Rate Location/Type
Thu 10:53:13 AM 40.6833 -73.4167 24° Northeast 117 135 1,500  Level New York TRACON
Thu 10:54:07 AM 40.6667 -73.4500 237° Southwest 107 123 2,400 789 Climbing New York TRACON
Thu 10:55:07 AM 40.6500 -73.4833 237° Southwest 117 135 3,000 750 Climbing New York TRACON
Thu 10:56:07 AM 40.6333 -73.5167 237° Southwest 124 143 3,900 1,048 Climbing New York TRACON
Thu 10:57:13 AM 40.6500 -73.5667 294° West 120 138 5,200 1,000 Climbing New York TRACON
Thu 10:58:00 AM 40.9092 -73.2845 24° Northeast  Level FlightAware Approximate
Thu 10:58:13 AM 40.6833 -73.5667 360° North 136 157 6,000  Level New York TRACON
Thu 10:59:13 AM 40.7167 -73.5500 21° North 175 201 6,000 450 Level New York TRACON
Thu 11:00:13 AM 40.7667 -73.5167 27° Northeast 142 163 6,900 550 Climbing New York TRACON
Thu 11:01:13 AM 40.8000 -73.5000 21° North 161 185 7,100 53 Climbing New York TRACON
Thu 11:02:07 AM 40.8333 -73.4500 49° Northeast 178 205 7,000 -50 Descending New York TRACON
Thu 11:03:13 AM 40.8667 -73.4167 37° Northeast 179 206 7,000  Level New York TRACON
Thu 11:05:13 AM 40.9167 -73.3000 60° Northeast 176 203 7,000 -33 Level New York TRACON
Thu 11:06:13 AM 40.9500 -73.2500 49° Northeast 182 209 6,900  Descending New York TRACON
Thu 11:07:13 AM 41.0000 -73.2667 346° North 168 193 7,000 50 Climbing New York TRACON
Thu 11:08:13 AM 41.0500 -73.2667 360° North 172 198 7,000  Level New York TRACON
Thu 11:09:13 AM 41.1000 -73.2667 360° North 169 194 7,000  Level New York TRACON
Thu 11:10:13 AM 41.1500 -73.2667 360° North 171 197 7,000  Level New York TRACON
Thu 11:11:13 AM 41.1833 -73.2667 360° North 169 194 7,000  Level New York TRACON
Thu 11:12:13 AM 41.2333 -73.2667 360° North 171 197 7,000  Level New York TRACON
Thu 11:13:30 AM 41.2969 -73.2717 357° North 183 211 7,000 44 Level Boston Center
Thu 11:14:30 AM 41.3450 -73.2722 360° North 183 211 7,100 50 Climbing Boston Center
Thu 11:15:30 AM 41.3908 -73.2728 359° North 177 204 7,100 -50 Level Boston Center
Thu 11:16:30 AM 41.4386 -73.2764 357° North 172 198 7,000  Descending Boston Center
Thu 11:17:30 AM 41.4867 -73.2742 North 177 204 7,100  Climbing Boston Center
Thu 11:18:30 AM 41.5344 -73.2831 352° North 177 204 7,000 -50 Descending Boston Center
Thu 11:19:30 AM 41.5781 -73.3003 344° North 172 198 7,000 50 Level Boston Center
Thu 11:20:30 AM 41.6239 -73.3231 340° North 167 192 7,100  Climbing Boston Center
Thu 11:21:30 AM 41.6675 -73.3406 343° North 167 192 7,000 -50 Descending Boston Center
Thu 11:22:31 AM 41.7111 -73.3606 341° North 167 192 7,000  Level Boston Center
Thu 11:23:30 AM 41.7525 -73.3778 343° North 167 192 7,000 50 Level Boston Center
Thu 11:24:30 AM 41.8003 -73.3953 345° North 167 192 7,100  Climbing Boston Center
Thu 11:25:30 AM 41.8439 -73.4125 344° North 162 186 7,000 -50 Descending Boston Center
Thu 11:26:30 AM 41.8939 -73.4358 341° North 162 186 7,000  Level Boston Center
Thu 11:27:30 AM 41.9353 -73.4503 345° North 167 192 7,000  Level Boston Center
Thu 11:28:30 AM 41.9831 -73.4761 338° Northwest 167 192 7,000 -50 Level Boston Center
Thu 11:29:30 AM 42.0203 -73.4936 341° North 167 192 6,900  Descending Boston Center
Thu 11:30:30 AM 42.0597 -73.5111 342° North 167 192 7,000 67 Climbing Boston Center
Thu 11:31:00 AM 42.0931 -73.5256 342° North 167 192 7,000  Level Boston Center
Thu 11:31:30 AM 42.1097 -73.5314 345° North 167 192 7,000  Level Boston Center
Thu 11:32:01 AM 42.1367 -73.5403 346° North 169 194 7,000  Level Boston Center
Thu 11:33:02 AM 42.1803 -73.5636 338° Northwest 167 192 7,000 -198 Level Boston Center
Thu 11:34:02 AM 42.2236 -73.5839 341° North 164 189 6,600 -595 Descending Boston Center
Thu 11:35:03 AM 42.2672 -73.6017 343° North 162 186 5,800 -1,054 Descending Boston Center
Thu 11:36:30 AM 42.3339 -73.6281 344° North 167 192 4,000 -1,134 Descending Boston Center
Thu 11:37:10 AM 42.3650 -73.6400 344° North 175 201 3,400 -594 Descending Boston Center
Thu 11:38:11 AM 42.4125 -73.6578 345° North 172 198 3,000 -197 Descending Boston Center
Thu 11:39:12 AM 42.4542 -73.6783 340° North 162 186 3,000  Level Boston Center
Thu 11:40:12 AM 42.4978 -73.6961 343° North 154 177 3,000 -248 Level Boston Center
Thu 11:41:13 AM 42.5392 -73.7139 342° North 159 183 2,500 -393 Descending Boston Center
Thu 11:42:14 AM 42.5828 -73.7344 341° North 162 186 2,200 -164 Descending Boston Center
Thu 11:43:03 AM 42.6075 -73.7575 326° Northwest 150 173 2,200 -164 Level Boston Center
Thu 11:44:04 AM 42.6444 -73.7892 328° Northwest 149 171 1,900 -248 Descending Boston Center
Thu 11:45:04 AM 42.6756 -73.8042 340° North 113 130 1,700 -417 Descending Boston Center
Thu 11:45:59 AM 42.7028 -73.8075 355° North 100 115 1,100 -639 Descending Boston Center
Thu 11:47:06 AM 42.7339 -73.8053 North 95 109 400 -627 Descending Boston Center

Login

Don't have an account? Register now (free) for customized features, flight alerts, and more!